Time;durP1;ratioP1;P1;durP2;ratioP2;P2;SDS_P1;SDS_P2;PMS_P1;PMS_P2;Temp;Humidity;BMP_temperature;BMP_pressure;BME280_temperature;BME280_humidity;BME280_pressure;Samples;Min_cycle;Max_cycle;Signal;HPM_P1;HPM_P2
2021/06/09 00:00:57;;;;;;;5.18;4.68;;;;;;;16.62;59.24;99744.56;526649;1089;116240;-53
2021/06/09 00:11:04;;;;;;;6.07;3.93;;;;;;;16.69;59.79;99744.87;530542;1088;116672;-54
2021/06/09 00:21:11;;;;;;;5.57;5.07;;;;;;;16.66;59.70;99744.17;516072;1088;115689;-50
2021/06/09 00:31:18;;;;;;;5.67;5.17;;;;;;;16.49;60.34;99729.73;522947;1088;116602;-53
2021/06/09 00:41:24;;;;;;;9.53;4.47;;;;;;;16.38;60.36;99722.70;527030;1089;116821;-54
2021/06/09 00:51:30;;;;;;;5.17;3.50;;;;;;;16.34;59.45;99725.77;530886;1088;117727;-51
2021/06/09 01:01:36;;;;;;;3.80;3.43;;;;;;;16.28;58.97;99719.19;528184;1089;116523;-51
2021/06/09 01:11:43;;;;;;;5.23;3.50;;;;;;;16.27;58.82;99735.21;530092;1089;116422;-53
2021/06/09 01:21:50;;;;;;;5.20;4.63;;;;;;;16.03;59.42;99731.86;521326;1089;116634;-51
2021/06/09 01:31:56;;;;;;;4.80;3.65;;;;;;;15.69;60.00;99740.82;517831;1089;115772;-51
2021/06/09 01:42:02;;;;;;;4.97;4.30;;;;;;;15.33;60.75;99745.55;519701;1089;116294;-53
2021/06/09 01:52:10;;;;;;;5.08;4.58;;;;;;;14.99;61.51;99741.16;516730;1089;116366;-51
2021/06/09 02:02:16;;;;;;;5.00;4.10;;;;;;;14.71;62.00;99739.85;522116;1089;115819;-51
2021/06/09 02:12:24;;;;;;;7.23;4.57;;;;;;;14.42;63.02;99743.00;517295;1088;116541;-56
2021/06/09 02:22:31;;;;;;;4.80;4.40;;;;;;;14.19;63.38;99748.27;532399;1089;117367;-52
2021/06/09 02:32:42;;;;;;;10.85;5.83;;;;;;;14.01;63.66;99750.52;520424;1089;115824;-54
2021/06/09 02:42:50;;;;;;;6.30;5.73;;;;;;;13.94;64.36;99752.78;522435;1089;116497;-51
2021/06/09 02:53:10;;;;;;;6.33;5.83;;;;;;;14.56;64.55;99744.57;531173;1089;116103;-53
2021/06/09 03:03:23;;;;;;;10.67;6.80;;;;;;;16.74;62.34;99746.14;523747;1089;115768;-52
2021/06/09 03:13:52;;;;;;;12.23;6.33;;;;;;;19.17;57.14;99745.25;517527;1089;116866;-53
2021/06/09 03:24:12;;;;;;;16.93;6.93;;;;;;;19.97;55.66;99739.15;517046;1089;115682;-51
2021/06/09 03:34:24;;;;;;;7.88;6.33;;;;;;;19.76;53.63;99727.97;521794;1088;116554;-52
2021/06/09 03:44:34;;;;;;;17.03;7.07;;;;;;;18.61;54.25;99724.82;519307;1089;116837;-50
2021/06/09 03:54:42;;;;;;;61.07;12.33;;;;;;;21.33;55.25;99735.88;518872;1088;116325;-55
2021/06/09 04:04:47;;;;;;;;;;;;;;;28.51;45.92;99737.45;522903;1088;117295;-54
2021/06/09 04:15:00;;;;;;;46.50;11.20;;;;;;;33.59;39.18;99738.47;521929;1089;101980;-52
2021/06/09 04:25:09;;;;;;;14.20;7.93;;;;;;;36.61;33.02;99741.19;518309;1088;115883;-55
2021/06/09 04:35:16;;;;;;;11.00;7.73;;;;;;;39.09;28.21;99742.70;514198;1088;116723;-51
2021/06/09 04:45:23;;;;;;;10.68;7.65;;;;;;;40.12;25.15;99736.54;522836;1089;116192;-55
2021/06/09 04:55:30;;;;;;;10.90;9.23;;;;;;;42.07;22.36;99727.50;520694;1089;116959;-55
2021/06/09 05:05:36;;;;;;;7.55;6.90;;;;;;;41.26;21.73;99726.73;524403;1089;117220;-56
2021/06/09 05:15:49;;;;;;;7.65;6.20;;;;;;;43.59;20.04;99716.23;532286;1088;116660;-56
2021/06/09 05:25:57;;;;;;;11.83;6.30;;;;;;;40.72;19.61;99725.05;532024;1089;116058;-56
2021/06/09 05:36:06;;;;;;;;;;;;;;;38.39;19.76;99719.74;531316;1090;117198;-56
2021/06/09 05:46:12;;;;;;;13.95;6.38;;;;;;;33.24;23.69;99724.83;521983;1089;102691;-56
2021/06/09 05:56:20;;;;;;;7.03;6.40;;;;;;;35.98;24.74;99726.38;531770;1088;116358;-56
2021/06/09 06:06:27;;;;;;;11.50;8.13;;;;;;;34.46;24.44;99741.61;524049;1089;116377;-56
2021/06/09 06:16:34;;;;;;;9.95;6.38;;;;;;;36.37;21.89;99738.89;515148;1088;118194;-54
2021/06/09 06:26:41;;;;;;;18.27;8.77;;;;;;;31.81;25.99;99741.50;519803;1089;119512;-53
2021/06/09 06:36:49;;;;;;;15.88;7.15;;;;;;;38.21;23.56;99743.13;529244;1089;116697;-55
2021/06/09 06:46:55;;;;;;;11.85;5.60;;;;;;;37.25;22.12;99749.27;530897;1090;116491;-56
2021/06/09 06:57:02;;;;;;;12.80;6.70;;;;;;;37.18;22.64;99749.53;528639;1090;116512;-56
2021/06/09 07:07:14;;;;;;;5.65;4.35;;;;;;;44.55;18.24;99756.41;527137;1089;116135;-59
2021/06/09 07:17:22;;;;;;;6.50;4.70;;;;;;;47.51;15.42;99756.84;508721;1088;10001678;-60
2021/06/09 07:27:31;;;;;;;8.73;5.17;;;;;;;37.82;17.71;99750.05;519116;1089;116710;-58
2021/06/09 07:37:43;;;;;;;11.28;6.00;;;;;;;31.01;23.03;99754.35;516581;1090;116027;-54
2021/06/09 07:47:52;;;;;;;9.85;5.75;;;;;;;28.27;27.37;99759.75;523269;1088;116050;-54
2021/06/09 07:58:01;;;;;;;12.90;6.15;;;;;;;27.15;29.24;99759.27;519863;1089;115946;-55
2021/06/09 08:08:07;;;;;;;8.63;5.87;;;;;;;26.80;31.23;99773.61;516962;1089;116205;-54
2021/06/09 08:18:19;;;;;;;9.77;5.07;;;;;;;28.18;31.05;99762.66;529959;1089;116085;-56
2021/06/09 08:28:25;;;;;;;9.03;4.80;;;;;;;28.18;30.33;99762.66;532071;1089;116548;-56
2021/06/09 08:38:32;;;;;;;7.37;4.10;;;;;;;28.30;29.89;99753.92;527488;1089;116401;-58
2021/06/09 08:48:41;;;;;;;4.90;4.05;;;;;;;28.69;29.40;99754.00;524202;1090;116280;-59
2021/06/09 08:58:47;;;;;;;8.00;3.80;;;;;;;28.46;28.92;99749.94;531948;1089;115775;-55
2021/06/09 09:08:53;;;;;;;8.60;3.50;;;;;;;28.16;28.97;99753.08;530461;1089;115892;-52
2021/06/09 09:19:02;;;;;;;11.85;4.20;;;;;;;27.55;29.96;99759.34;532250;1090;118287;-52
2021/06/09 09:29:13;;;;;;;3.93;2.90;;;;;;;27.78;30.41;99749.20;529245;1089;116674;-53
2021/06/09 09:39:25;;;;;;;4.43;3.68;;;;;;;27.65;30.42;99756.26;523117;1090;117051;-53
2021/06/09 09:49:40;;;;;;;5.38;3.23;;;;;;;27.97;30.74;99752.92;528238;1089;115957;-53
2021/06/09 09:59:57;;;;;;;3.77;3.20;;;;;;;28.21;30.03;99743.34;531008;1090;116230;-52
2021/06/09 10:10:05;;;;;;;6.07;3.57;;;;;;;28.71;30.13;99735.70;519936;1088;116254;-54
2021/06/09 10:20:12;;;;;;;7.23;4.83;;;;;;;28.94;29.67;99736.03;520350;1089;116259;-51
2021/06/09 10:30:25;;;;;;;6.38;5.15;;;;;;;28.48;29.95;99737.88;531222;1089;117014;-60
2021/06/09 10:40:34;;;;;;;5.77;3.73;;;;;;;27.41;31.52;99731.53;528255;1089;117345;-60
2021/06/09 10:50:41;;;;;;;6.10;4.17;;;;;;;26.79;32.42;99741.52;531194;1090;115807;-58
2021/06/09 11:00:48;;;;;;;5.48;3.93;;;;;;;26.39;33.41;99740.28;532167;1089;116500;-55
2021/06/09 11:10:54;;;;;;;5.60;5.10;;;;;;;26.90;33.53;99732.88;531931;1089;116076;-57
2021/06/09 11:21:02;;;;;;;4.83;4.43;;;;;;;26.36;33.88;99739.84;530718;1088;117244;-59
2021/06/09 11:31:09;;;;;;;7.33;4.68;;;;;;;25.60;34.68;99728.77;531933;1090;116872;-56
2021/06/09 11:41:17;;;;;;;4.57;4.17;;;;;;;25.91;34.87;99726.72;532190;1090;116967;-57
2021/06/09 11:51:33;;;;;;;5.17;4.53;;;;;;;25.81;34.81;99716.31;527372;1089;117146;-57
2021/06/09 12:01:42;;;;;;;4.47;3.63;;;;;;;25.64;34.90;99705.02;529996;1089;116478;-56
2021/06/09 12:11:51;;;;;;;7.30;5.33;;;;;;;25.50;35.01;99710.25;525422;1090;116062;-59
2021/06/09 12:22:03;;;;;;;6.70;4.30;;;;;;;25.69;34.82;99698.03;531673;1089;116305;-58
2021/06/09 12:32:22;;;;;;;6.63;4.60;;;;;;;24.79;35.62;99690.34;532415;1087;116172;-57
2021/06/09 12:42:31;;;;;;;4.65;4.03;;;;;;;24.99;34.76;99681.64;523789;1090;10001423;-57
2021/06/09 12:52:37;;;;;;;6.20;3.53;;;;;;;25.02;34.79;99674.03;531094;1090;116723;-57
2021/06/09 13:02:43;;;;;;;3.77;2.90;;;;;;;24.64;34.84;99655.44;530363;1090;117138;-56
2021/06/09 13:12:52;;;;;;;6.80;2.70;;;;;;;24.49;34.83;99640.20;528450;1090;116664;-57
2021/06/09 13:22:58;;;;;;;4.63;4.00;;;;;;;24.57;34.03;99641.09;531006;1090;116234;-57
2021/06/09 13:33:05;;;;;;;5.45;3.55;;;;;;;24.48;33.13;99643.07;527707;1090;116988;-56
2021/06/09 13:43:14;;;;;;;4.20;2.03;;;;;;;24.27;32.48;99627.77;520435;1088;116257;-54
2021/06/09 13:53:20;;;;;;;2.20;1.67;;;;;;;24.56;32.11;99618.81;520488;1090;116495;-56
2021/06/09 14:03:29;;;;;;;4.20;2.40;;;;;;;24.34;29.81;99612.55;515864;1088;116638;-57
2021/06/09 14:13:36;;;;;;;2.57;1.30;;;;;;;24.24;28.63;99610.18;517680;1089;115917;-55
2021/06/09 14:23:56;;;;;;;1.93;0.83;;;;;;;23.97;29.07;99609.81;524478;1090;117000;-56
2021/06/09 14:34:13;;;;;;;1.30;1.20;;;;;;;24.16;29.95;99610.28;531165;1089;117755;-57
2021/06/09 14:44:25;;;;;;;3.27;0.73;;;;;;;23.96;30.06;99600.11;530681;1088;116367;-57
2021/06/09 14:54:32;;;;;;;1.40;0.90;;;;;;;24.05;29.93;99617.77;523925;1089;116735;-60
2021/06/09 15:04:39;;;;;;;2.28;1.10;;;;;;;23.89;31.03;99612.59;531495;1089;119362;-57
2021/06/09 15:14:45;;;;;;;4.57;1.37;;;;;;;23.95;31.38;99611.02;527402;1089;116495;-57
2021/06/09 15:24:53;;;;;;;1.53;0.93;;;;;;;23.87;31.99;99610.08;526033;1090;116222;-55
2021/06/09 15:34:59;;;;;;;6.18;1.88;;;;;;;23.81;31.88;99612.67;514840;1090;116069;-56
2021/06/09 15:45:08;;;;;;;5.43;1.67;;;;;;;23.59;31.66;99612.56;515129;1089;116238;-55
2021/06/09 15:55:17;;;;;;;4.33;1.40;;;;;;;23.56;32.17;99613.78;527564;1088;116127;-57
2021/06/09 16:05:24;;;;;;;3.50;1.63;;;;;;;23.37;31.33;99612.43;517316;1090;116059;-56
2021/06/09 16:15:31;;;;;;;2.77;2.23;;;;;;;23.08;31.45;99624.72;531871;1088;116689;-59
2021/06/09 16:25:38;;;;;;;4.90;2.97;;;;;;;23.03;30.92;99619.05;519411;1089;116453;-59
2021/06/09 16:35:45;;;;;;;4.38;2.40;;;;;;;22.99;32.75;99623.95;514287;1088;116365;-61
2021/06/09 16:45:51;;;;;;;2.40;1.73;;;;;;;23.11;33.02;99627.02;526201;1090;174178;-59
2021/06/09 16:56:06;;;;;;;1.83;1.73;;;;;;;22.55;33.69;99641.44;532322;1089;116216;-58
2021/06/09 17:06:12;;;;;;;6.73;2.10;;;;;;;22.13;34.45;99635.42;525536;1088;117944;-58
2021/06/09 17:16:19;;;;;;;3.07;1.70;;;;;;;21.96;34.71;99639.98;521040;1089;116160;-59
2021/06/09 17:26:26;;;;;;;7.63;2.33;;;;;;;21.81;35.32;99646.05;516240;1090;116563;-57
2021/06/09 17:36:32;;;;;;;5.90;2.30;;;;;;;21.67;35.72;99644.08;519101;1089;116162;-57
2021/06/09 17:46:41;;;;;;;7.93;2.27;;;;;;;21.58;36.17;99658.41;529563;1089;116159;-58
2021/06/09 17:56:49;;;;;;;2.88;1.98;;;;;;;22.26;35.07;99646.39;515855;1089;115992;-58
2021/06/09 18:07:00;;;;;;;3.00;2.15;;;;;;;21.41;36.16;99645.91;516552;1090;116355;-58
2021/06/09 18:17:09;;;;;;;3.80;1.87;;;;;;;20.96;37.13;99650.74;525009;1090;117992;-58
2021/06/09 18:27:16;;;;;;;4.43;2.40;;;;;;;20.63;37.40;99644.45;527770;1089;116425;-57
2021/06/09 18:37:22;;;;;;;7.20;2.50;;;;;;;20.33;38.35;99638.71;514621;1089;116085;-58
2021/06/09 18:47:29;;;;;;;13.57;3.30;;;;;;;19.92;39.45;99644.66;523011;1089;116272;-60
2021/06/09 18:57:36;;;;;;;9.47;2.73;;;;;;;19.48;40.86;99646.36;531026;1089;117508;-60
2021/06/09 19:07:46;;;;;;;12.37;3.63;;;;;;;19.05;42.37;99654.17;524940;1090;116212;-60
2021/06/09 19:17:56;;;;;;;21.90;3.43;;;;;;;18.66;43.69;99668.53;524047;1089;116953;-59
2021/06/09 19:28:03;;;;;;;17.35;3.70;;;;;;;18.25;45.04;99679.52;516510;1089;116260;-59
2021/06/09 19:38:10;;;;;;;11.60;3.03;;;;;;;17.84;46.60;99678.91;518568;1090;115807;-58
2021/06/09 19:48:17;;;;;;;10.07;3.50;;;;;;;17.46;47.81;99694.74;524990;1089;115781;-59
2021/06/09 19:58:23;;;;;;;16.03;4.27;;;;;;;17.15;48.96;99705.52;529286;1089;116437;-58
2021/06/09 20:08:29;;;;;;;92.73;12.80;;;;;;;16.83;49.89;99709.19;519562;1089;116020;-54
2021/06/09 20:18:36;;;;;;;55.47;10.07;;;;;;;16.51;50.79;99722.48;518503;1090;178862;-58
2021/06/09 20:28:42;;;;;;;22.17;5.13;;;;;;;16.22;51.93;99730.30;517698;1089;116739;-57
2021/06/09 20:38:49;;;;;;;12.83;5.20;;;;;;;15.94;52.72;99736.14;525948;1088;116992;-58
2021/06/09 20:48:56;;;;;;;10.93;4.60;;;;;;;15.69;53.52;99729.38;525132;1089;116957;-57
2021/06/09 20:59:02;;;;;;;16.50;3.83;;;;;;;15.47;54.08;99738.27;514390;1089;115317;-56
2021/06/09 21:09:10;;;;;;;10.95;4.65;;;;;;;15.25;55.33;99747.97;512714;1089;20001129;-58
2021/06/09 21:19:17;;;;;;;5.17;3.73;;;;;;;15.08;55.88;99739.61;521085;1089;117350;-58
2021/06/09 21:29:23;;;;;;;5.03;3.63;;;;;;;14.94;56.52;99742.50;532054;1088;117534;-59
2021/06/09 21:39:30;;;;;;;5.37;4.00;;;;;;;14.76;57.12;99748.30;516394;1089;116519;-58
2021/06/09 21:49:36;;;;;;;8.70;4.30;;;;;;;14.52;57.79;99749.25;515427;1089;116282;-61
2021/06/09 21:59:44;;;;;;;6.93;3.90;;;;;;;14.29;58.36;99749.23;519153;1089;116354;-60
2021/06/09 22:09:50;;;;;;;5.43;4.10;;;;;;;14.14;58.78;99753.89;519062;1088;117653;-61
2021/06/09 22:19:57;;;;;;;9.33;4.27;;;;;;;14.00;59.68;99760.22;523372;1090;115813;-61
2021/06/09 22:30:03;;;;;;;5.10;4.60;;;;;;;13.89;60.00;99754.91;514365;1088;117209;-60
2021/06/09 22:40:12;;;;;;;10.50;4.53;;;;;;;13.75;60.16;99752.47;515080;1090;116249;-61
2021/06/09 22:50:17;;;;;;;;;;;;;;;13.65;60.88;99758.43;516466;1089;116637;-61
2021/06/09 23:00:26;;;;;;;5.83;4.70;;;;;;;13.55;61.02;99752.16;532187;1088;103445;-61
2021/06/09 23:10:30;;;;;;;;;;;;;;;13.49;61.49;99744.70;530149;1089;116183;-61
2021/06/09 23:20:37;;;;;;;8.03;5.13;;;;;;;13.69;61.05;99745.86;524279;1088;103323;-60
2021/06/09 23:30:47;;;;;;;9.57;5.23;;;;;;;13.70;60.88;99747.53;524676;1089;116154;-60
2021/06/09 23:40:53;;;;;;;5.77;4.07;;;;;;;13.52;61.42;99755.02;531856;1088;115928;-61
